Time,TemperatureF,DewpointF,PressureIn,WindDirection,WindDirectionDegrees,WindSpeedMPH,WindSpeedGustMPH,Humidity,HourlyPrecipIn,Conditions,Clouds,dailyrainin,SoftwareType,DateUTC
2013-04-08 00:01:00,43.2,36.8,29.97,NNW,340,2.0,6.0,78,0.00,,---,0.00,VWS V14.01,2013-04-08 04:01:00,
2013-04-08 00:03:00,43.6,37.2,29.97,NNW,332,1.0,6.0,78,0.00,,---,0.00,VWS V14.01,2013-04-08 04:03:00,
2013-04-08 00:08:00,44.0,37.6,29.98,NNW,334,4.0,5.0,78,0.00,,---,0.00,VWS V14.01,2013-04-08 04:08:00,
2013-04-08 00:10:00,44.0,37.6,29.98,NW,306,5.0,6.0,78,0.00,,---,0.00,VWS V14.01,2013-04-08 04:10:00,
2013-04-08 00:16:00,43.8,37.4,29.98,NW,312,5.0,9.0,78,0.00,,---,0.00,VWS V14.01,2013-04-08 04:16:00,
2013-04-08 00:21:00,43.6,37.5,29.98,NNW,330,2.0,7.0,79,0.00,,---,0.00,VWS V14.01,2013-04-08 04:21:00,
2013-04-08 00:26:00,43.2,36.8,29.98,NW,326,5.0,7.0,78,0.00,,---,0.00,VWS V14.01,2013-04-08 04:26:00,
2013-04-08 00:32:00,42.6,36.5,29.98,NW,315,3.0,5.0,79,0.00,,---,0.00,VWS V14.01,2013-04-08 04:32:00,
2013-04-08 00:38:00,42.5,36.8,29.98,NNW,328,2.0,6.0,80,0.00,,---,0.00,VWS V14.01,2013-04-08 04:38:00,
2013-04-08 00:44:00,42.4,36.7,29.99,WNW,302,3.0,11.0,80,0.00,,---,0.00,VWS V14.01,2013-04-08 04:44:00,
2013-04-08 00:49:00,41.9,36.2,29.99,WNW,297,5.0,7.0,80,0.00,,---,0.00,VWS V14.01,2013-04-08 04:49:00,
2013-04-08 00:55:00,41.8,36.4,29.99,NW,308,5.0,7.0,81,0.00,,---,0.00,VWS V14.01,2013-04-08 04:55:00,
2013-04-08 01:00:00,41.6,36.2,29.99,NW,311,3.0,7.0,81,0.00,,---,0.00,VWS V14.01,2013-04-08 05:00:00,
2013-04-08 01:06:00,41.5,36.1,29.99,NW,319,5.0,9.0,81,0.00,,---,0.00,VWS V14.01,2013-04-08 05:06:00,
2013-04-08 01:11:00,41.4,36.0,29.99,NW,305,8.0,9.0,81,0.00,,---,0.00,VWS V14.01,2013-04-08 05:11:00,
2013-04-08 01:16:00,41.1,35.7,29.99,NW,325,8.0,11.0,81,0.00,,---,0.00,VWS V14.01,2013-04-08 05:16:00,
2013-04-08 01:21:00,41.2,35.8,29.99,WNW,301,6.0,12.0,81,0.00,,---,0.00,VWS V14.01,2013-04-08 05:21:00,
2013-04-08 01:26:00,41.1,35.4,29.99,WNW,285,7.0,12.0,80,0.00,,---,0.00,VWS V14.01,2013-04-08 05:26:00,
2013-04-08 01:31:00,40.9,35.2,29.99,NW,307,7.0,11.0,80,0.00,,---,0.00,VWS V14.01,2013-04-08 05:31:00,
2013-04-08 01:37:00,40.8,35.1,29.99,NW,318,11.0,11.0,80,0.00,,---,0.00,VWS V14.01,2013-04-08 05:37:00,
2013-04-08 01:42:00,40.7,35.0,30.00,NW,316,6.0,13.0,80,0.00,,---,0.00,VWS V14.01,2013-04-08 05:42:00,
2013-04-08 01:47:00,40.5,34.8,29.99,NW,308,6.0,12.0,80,0.00,,---,0.00,VWS V14.01,2013-04-08 05:47:00,
2013-04-08 01:53:00,40.5,34.8,29.99,NW,305,5.0,12.0,80,0.00,,---,0.00,VWS V14.01,2013-04-08 05:53:00,
2013-04-08 01:58:00,40.4,34.7,30.00,NNW,333,8.0,11.0,80,0.00,,---,0.00,VWS V14.01,2013-04-08 05:58:00,
2013-04-08 02:03:00,40.1,34.4,30.00,NW,316,6.0,8.0,80,0.00,,---,0.00,VWS V14.01,2013-04-08 06:03:00,
2013-04-08 02:08:00,40.1,34.4,29.99,NW,307,12.0,14.0,80,0.00,,---,0.00,VWS V14.01,2013-04-08 06:08:00,
2013-04-08 02:13:00,39.9,34.2,30.00,NW,315,8.0,12.0,80,0.00,,---,0.00,VWS V14.01,2013-04-08 06:13:00,
2013-04-08 02:55:00,38.5,33.2,30.00,NW,319,9.0,12.0,81,0.00,,---,0.00,VWS V14.01,2013-04-08 06:55:00,
2013-04-08 03:01:00,38.3,33.0,30.00,NW,312,9.0,10.0,81,0.00,,---,0.00,VWS V14.01,2013-04-08 07:01:00,
2013-04-08 03:06:00,38.1,33.1,30.00,NW,305,7.0,11.0,82,0.00,,---,0.00,VWS V14.01,2013-04-08 07:06:00,
2013-04-08 03:12:00,38.0,33.0,30.00,NW,305,7.0,9.0,82,0.00,,---,0.00,VWS V14.01,2013-04-08 07:12:00,
2013-04-08 03:18:00,37.8,32.8,30.00,WNW,297,6.0,10.0,82,0.00,,---,0.00,VWS V14.01,2013-04-08 07:18:00,
2013-04-08 03:25:00,37.8,32.8,30.00,NW,309,6.0,11.0,82,0.00,,---,0.00,VWS V14.01,2013-04-08 07:25:00,
2013-04-08 03:30:00,37.7,32.7,30.00,NW,308,5.0,9.0,82,0.00,,---,0.00,VWS V14.01,2013-04-08 07:30:00,
2013-04-08 03:36:00,37.6,32.9,30.00,NW,305,8.0,10.0,83,0.00,,---,0.00,VWS V14.01,2013-04-08 07:36:00,
2013-04-08 03:42:00,37.5,32.8,30.01,WNW,293,5.0,8.0,83,0.00,,---,0.00,VWS V14.01,2013-04-08 07:42:00,
2013-04-08 03:48:00,37.6,32.9,30.00,WNW,293,4.0,10.0,83,0.00,,---,0.00,VWS V14.01,2013-04-08 07:48:00,
2013-04-08 03:53:00,37.4,32.7,30.01,WNW,299,4.0,7.0,83,0.00,,---,0.00,VWS V14.01,2013-04-08 07:53:00,
2013-04-08 03:58:00,37.3,32.6,30.00,NW,305,5.0,8.0,83,0.00,,---,0.00,VWS V14.01,2013-04-08 07:58:00,
2013-04-08 04:04:00,37.3,32.6,30.01,NW,307,5.0,10.0,83,0.00,,---,0.00,VWS V14.01,2013-04-08 08:04:00,
2013-04-08 04:10:00,37.2,32.5,30.01,WNW,292,6.0,9.0,83,0.00,,---,0.00,VWS V14.01,2013-04-08 08:10:00,
2013-04-08 04:15:00,37.3,32.6,30.01,NW,319,4.0,9.0,83,0.00,,---,0.00,VWS V14.01,2013-04-08 08:15:00,
2013-04-08 04:21:00,37.0,32.6,30.01,NW,305,6.0,9.0,84,0.00,,---,0.00,VWS V14.01,2013-04-08 08:21:00,
2013-04-08 04:27:00,36.9,32.5,30.01,WNW,294,6.0,10.0,84,0.00,,---,0.00,VWS V14.01,2013-04-08 08:27:00,
2013-04-08 04:33:00,37.2,32.8,30.02,WNW,289,8.0,13.0,84,0.00,,---,0.00,VWS V14.01,2013-04-08 08:33:00,
2013-04-08 04:38:00,37.3,32.6,30.01,NW,308,9.0,14.0,83,0.00,,---,0.00,VWS V14.01,2013-04-08 08:38:00,
2013-04-08 04:45:00,37.7,33.0,30.01,WNW,291,9.0,17.0,83,0.00,,---,0.00,VWS V14.01,2013-04-08 08:45:00,
2013-04-08 04:52:00,37.9,32.9,30.01,WNW,294,10.0,15.0,82,0.00,,---,0.00,VWS V14.01,2013-04-08 08:52:00,
2013-04-08 04:58:00,37.9,32.9,30.01,WNW,289,17.0,19.0,82,0.00,,---,0.00,VWS V14.01,2013-04-08 08:58:00,
2013-04-08 05:04:00,37.8,32.8,30.01,WNW,301,10.0,14.0,82,0.00,,---,0.00,VWS V14.01,2013-04-08 09:04:00,
2013-04-08 05:09:00,37.6,32.6,30.01,West,267,13.0,14.0,82,0.00,,---,0.00,VWS V14.01,2013-04-08 09:09:00,
2013-04-08 05:15:00,37.6,32.6,30.01,WNW,301,10.0,16.0,82,0.00,,---,0.00,VWS V14.01,2013-04-08 09:15:00,
2013-04-08 05:20:00,37.5,32.8,30.01,NW,309,15.0,15.0,83,0.00,,---,0.00,VWS V14.01,2013-04-08 09:20:00,
2013-04-08 05:26:00,37.4,32.7,30.01,WNW,300,13.0,20.0,83,0.00,,---,0.00,VWS V14.01,2013-04-08 09:26:00,
2013-04-08 05:32:00,37.3,32.6,30.01,WNW,291,11.0,17.0,83,0.00,,---,0.00,VWS V14.01,2013-04-08 09:32:00,
2013-04-08 05:37:00,37.3,32.6,30.01,WNW,294,11.0,18.0,83,0.00,,---,0.00,VWS V14.01,2013-04-08 09:37:00,
2013-04-08 05:43:00,37.2,32.5,30.02,WNW,294,19.0,19.0,83,0.00,,---,0.00,VWS V14.01,2013-04-08 09:43:00,
2013-04-08 05:48:00,37.3,32.6,30.01,WNW,285,13.0,18.0,83,0.00,,---,0.00,VWS V14.01,2013-04-08 09:48:00,
2013-04-08 05:55:00,37.1,32.4,30.01,WNW,291,18.0,19.0,83,0.00,,---,0.00,VWS V14.01,2013-04-08 09:55:00,
2013-04-08 06:01:00,36.9,32.5,30.01,NW,307,14.0,19.0,84,0.00,,---,0.00,VWS V14.01,2013-04-08 10:01:00,
2013-04-08 06:06:00,36.7,32.3,30.01,NW,308,12.0,19.0,84,0.00,,---,0.00,VWS V14.01,2013-04-08 10:06:00,
2013-04-08 06:11:00,36.6,32.2,30.02,NW,310,10.0,17.0,84,0.00,,---,0.00,VWS V14.01,2013-04-08 10:11:00,
2013-04-08 06:16:00,36.5,32.1,30.02,NW,306,10.0,18.0,84,0.00,,---,0.00,VWS V14.01,2013-04-08 10:16:00,
2013-04-08 06:21:00,36.5,32.4,30.02,WNW,301,9.0,16.0,85,0.00,,---,0.00,VWS V14.01,2013-04-08 10:21:00,
2013-04-08 06:26:00,36.6,32.5,30.02,WNW,285,9.0,17.0,85,0.00,,---,0.00,VWS V14.01,2013-04-08 10:26:00,
2013-04-08 06:31:00,36.7,32.3,30.02,NW,309,12.0,18.0,84,0.00,,---,0.00,VWS V14.01,2013-04-08 10:31:00,
2013-04-08 06:37:00,36.7,32.3,30.02,WNW,302,11.0,17.0,84,0.00,,---,0.00,VWS V14.01,2013-04-08 10:37:00,
2013-04-08 06:42:00,36.7,32.3,30.03,NW,305,13.0,17.0,84,0.00,,---,0.00,VWS V14.01,2013-04-08 10:42:00,
2013-04-08 06:47:00,36.8,32.4,30.03,NW,313,13.0,19.0,84,0.00,,---,0.00,VWS V14.01,2013-04-08 10:47:00,
2013-04-08 06:52:00,36.8,32.4,30.03,NW,308,12.0,17.0,84,0.00,,---,0.00,VWS V14.01,2013-04-08 10:52:00,
2013-04-08 06:58:00,36.9,32.5,30.04,WNW,295,8.0,20.0,84,0.00,,---,0.00,VWS V14.01,2013-04-08 10:58:00,
2013-04-08 07:03:00,36.9,32.2,30.04,NW,324,7.0,19.0,83,0.00,,---,0.00,VWS V14.01,2013-04-08 11:03:00,
2013-04-08 07:08:00,36.9,32.2,30.04,WNW,287,13.0,18.0,83,0.00,,---,0.00,VWS V14.01,2013-04-08 11:08:00,
2013-04-08 07:13:00,36.9,32.2,30.04,WNW,292,11.0,21.0,83,0.00,,---,0.00,VWS V14.01,2013-04-08 11:13:00,
2013-04-08 07:18:00,37.0,32.3,30.04,WNW,295,10.0,16.0,83,0.00,,---,0.00,VWS V14.01,2013-04-08 11:18:00,
2013-04-08 07:23:00,37.1,32.4,30.04,WNW,297,11.0,21.0,83,0.00,,---,0.00,VWS V14.01,2013-04-08 11:23:00,
2013-04-08 07:28:00,37.1,32.1,30.04,NW,319,12.0,22.0,82,0.00,,---,0.00,VWS V14.01,2013-04-08 11:28:00,
2013-04-08 07:33:00,37.2,32.2,30.05,WNW,301,14.0,17.0,82,0.00,,---,0.00,VWS V14.01,2013-04-08 11:33:00,
2013-04-08 07:40:00,37.2,32.2,30.05,NW,309,14.0,18.0,82,0.00,,---,0.00,VWS V14.01,2013-04-08 11:40:00,
2013-04-08 07:46:00,37.1,32.4,30.05,WNW,287,13.0,15.0,83,0.00,,---,0.00,VWS V14.01,2013-04-08 11:46:00,
2013-04-08 07:52:00,37.1,32.4,30.05,WNW,288,11.0,15.0,83,0.00,,---,0.00,VWS V14.01,2013-04-08 11:52:00,
2013-04-08 07:57:00,37.0,32.3,30.05,WNW,295,11.0,16.0,83,0.00,,---,0.00,VWS V14.01,2013-04-08 11:57:00,
2013-04-08 08:03:00,37.0,32.3,30.05,WNW,291,9.0,18.0,83,0.00,,---,0.00,VWS V14.01,2013-04-08 12:03:00,
2013-04-08 08:10:00,37.3,32.6,30.06,NW,315,20.0,20.0,83,0.00,,---,0.00,VWS V14.01,2013-04-08 12:10:00,
2013-04-08 08:15:00,37.7,33.0,30.06,WNW,301,7.0,16.0,83,0.00,,---,0.00,VWS V14.01,2013-04-08 12:15:00,
2013-04-08 08:21:00,37.9,32.9,30.06,NW,315,14.0,18.0,82,0.00,,---,0.00,VWS V14.01,2013-04-08 12:21:00,
2013-04-08 08:26:00,37.6,32.6,30.07,NW,307,11.0,21.0,82,0.00,,---,0.00,VWS V14.01,2013-04-08 12:26:00,
2013-04-08 08:32:00,37.4,32.4,30.07,NW,311,8.0,17.0,82,0.00,,---,0.00,VWS V14.01,2013-04-08 12:32:00,
2013-04-08 08:37:00,37.3,32.6,30.07,NW,309,12.0,17.0,83,0.00,,---,0.00,VWS V14.01,2013-04-08 12:37:00,
2013-04-08 08:43:00,37.3,32.6,30.07,WNW,302,10.0,19.0,83,0.00,,---,0.00,VWS V14.01,2013-04-08 12:43:00,
2013-04-08 08:50:00,37.3,32.6,30.07,NW,322,13.0,20.0,83,0.00,,---,0.00,VWS V14.01,2013-04-08 12:50:00,
2013-04-08 08:56:00,37.5,32.8,30.07,NW,304,16.0,18.0,83,0.00,,---,0.00,VWS V14.01,2013-04-08 12:56:00,
2013-04-08 09:02:00,37.5,32.5,30.08,NW,305,6.0,19.0,82,0.00,,---,0.00,VWS V14.01,2013-04-08 13:02:00,
2013-04-08 09:07:00,37.7,32.7,30.08,WNW,297,13.0,16.0,82,0.00,,---,0.00,VWS V14.01,2013-04-08 13:07:00,
2013-04-08 09:13:00,37.7,32.7,30.08,WNW,300,10.0,18.0,82,0.00,,---,0.00,VWS V14.01,2013-04-08 13:13:00,
2013-04-08 09:18:00,37.6,32.6,30.08,WNW,302,10.0,14.0,82,0.00,,---,0.00,VWS V14.01,2013-04-08 13:18:00,
2013-04-08 09:23:00,37.5,32.5,30.08,WNW,291,6.0,18.0,82,0.00,,---,0.00,VWS V14.01,2013-04-08 13:23:00,
2013-04-08 09:28:00,37.7,32.7,30.08,NNW,329,10.0,11.0,82,0.00,,---,0.00,VWS V14.01,2013-04-08 13:28:00,
2013-04-08 09:33:00,37.8,32.8,30.09,NW,324,11.0,16.0,82,0.00,,---,0.00,VWS V14.01,2013-04-08 13:33:00,
2013-04-08 09:39:00,37.8,32.8,30.09,NW,305,7.0,18.0,82,0.00,,---,0.00,VWS V14.01,2013-04-08 13:39:00,
2013-04-08 09:46:00,38.3,33.0,30.09,NW,319,6.0,16.0,81,0.00,,---,0.00,VWS V14.01,2013-04-08 13:46:00,
2013-04-08 09:51:00,38.2,32.9,30.09,WNW,287,12.0,20.0,81,0.00,,---,0.00,VWS V14.01,2013-04-08 13:51:00,
2013-04-08 09:56:00,38.4,32.8,30.10,NW,319,7.0,16.0,80,0.00,,---,0.00,VWS V14.01,2013-04-08 13:56:00,
2013-04-08 10:01:00,38.4,33.1,30.09,WNW,301,8.0,19.0,81,0.00,,---,0.00,VWS V14.01,2013-04-08 14:01:00,
2013-04-08 10:06:00,38.3,32.7,30.10,WNW,300,11.0,20.0,80,0.00,,---,0.00,VWS V14.01,2013-04-08 14:06:00,
2013-04-08 10:11:00,38.3,32.7,30.10,NW,307,13.0,18.0,80,0.00,,---,0.00,VWS V14.01,2013-04-08 14:11:00,
2013-04-08 10:17:00,38.9,33.3,30.10,NW,320,6.0,17.0,80,0.00,,---,0.00,VWS V14.01,2013-04-08 14:17:00,
2013-04-08 10:22:00,39.2,32.9,30.10,NW,305,12.0,20.0,78,0.00,,---,0.00,VWS V14.01,2013-04-08 14:22:00,
2013-04-08 10:27:00,39.1,32.8,30.10,WNW,300,17.0,17.0,78,0.00,,---,0.00,VWS V14.01,2013-04-08 14:27:00,
2013-04-08 10:32:00,39.1,33.2,30.10,NW,322,6.0,20.0,79,0.00,,---,0.00,VWS V14.01,2013-04-08 14:32:00,
2013-04-08 10:37:00,39.2,32.9,30.10,NW,305,9.0,19.0,78,0.00,,---,0.00,VWS V14.01,2013-04-08 14:37:00,
2013-04-08 10:42:00,39.3,32.7,30.10,NNW,331,7.0,21.0,77,0.00,,---,0.00,VWS V14.01,2013-04-08 14:42:00,
2013-04-08 10:47:00,39.5,32.9,30.10,NW,314,7.0,14.0,77,0.00,,---,0.00,VWS V14.01,2013-04-08 14:47:00,
2013-04-08 10:53:00,39.7,33.1,30.10,WNW,302,9.0,17.0,77,0.00,,---,0.00,VWS V14.01,2013-04-08 14:53:00,
2013-04-08 10:58:00,40.3,33.3,30.09,NW,318,11.0,18.0,76,0.00,,---,0.00,VWS V14.01,2013-04-08 14:58:00,
2013-04-08 11:03:00,40.8,33.5,30.10,WNW,301,7.0,13.0,75,0.00,,---,0.00,VWS V14.01,2013-04-08 15:03:00,
2013-04-08 11:09:00,40.9,32.9,30.10,WNW,287,16.0,16.0,73,0.00,,---,0.00,VWS V14.01,2013-04-08 15:09:00,
2013-04-08 11:14:00,41.3,33.3,30.10,WNW,302,7.0,13.0,73,0.00,,---,0.00,VWS V14.01,2013-04-08 15:14:00,
2013-04-08 11:20:00,42.2,34.2,30.10,NW,314,14.0,14.0,73,0.00,,---,0.00,VWS V14.01,2013-04-08 15:20:00,
2013-04-08 11:25:00,41.7,33.3,30.10,WNW,297,7.0,13.0,72,0.00,,---,0.00,VWS V14.01,2013-04-08 15:25:00,
2013-04-08 11:31:00,42.0,33.3,30.10,NW,314,5.0,14.0,71,0.00,,---,0.00,VWS V14.01,2013-04-08 15:31:00,
2013-04-08 11:36:00,42.7,33.6,30.10,WNW,292,12.0,13.0,70,0.00,,---,0.00,VWS V14.01,2013-04-08 15:36:00,
2013-04-08 11:41:00,42.8,33.0,30.10,NW,310,11.0,14.0,68,0.00,,---,0.00,VWS V14.01,2013-04-08 15:41:00,
2013-04-08 11:46:00,42.8,33.3,30.10,West,277,5.0,11.0,69,0.00,,---,0.00,VWS V14.01,2013-04-08 15:46:00,
2013-04-08 11:51:00,43.5,34.0,30.10,WNW,299,8.0,11.0,69,0.00,,---,0.00,VWS V14.01,2013-04-08 15:51:00,
2013-04-08 11:56:00,43.5,34.0,30.10,NNW,338,2.0,16.0,69,0.00,,---,0.00,VWS V14.01,2013-04-08 15:56:00,
2013-04-08 12:02:00,43.8,33.2,30.10,WNW,302,11.0,18.0,66,0.00,,---,0.00,VWS V14.01,2013-04-08 16:02:00,
2013-04-08 12:07:00,44.2,34.3,30.10,NW,322,7.0,11.0,68,0.00,,---,0.00,VWS V14.01,2013-04-08 16:07:00,
2013-04-08 12:12:00,44.3,33.7,30.10,WNW,288,8.0,13.0,66,0.00,,---,0.00,VWS V14.01,2013-04-08 16:12:00,
2013-04-08 12:17:00,44.1,33.9,30.10,NNW,328,5.0,13.0,67,0.00,,---,0.00,VWS V14.01,2013-04-08 16:17:00,
2013-04-08 12:22:00,44.8,34.5,30.10,NW,315,9.0,10.0,67,0.00,,---,0.00,VWS V14.01,2013-04-08 16:22:00,
2013-04-08 12:27:00,45.2,33.8,30.10,WNW,288,10.0,13.0,64,0.00,,---,0.00,VWS V14.01,2013-04-08 16:27:00,
2013-04-08 12:32:00,45.6,34.1,30.10,WNW,293,10.0,11.0,64,0.00,,---,0.00,VWS V14.01,2013-04-08 16:32:00,
2013-04-08 12:37:00,45.6,34.1,30.10,West,264,9.0,12.0,64,0.00,,---,0.00,VWS V14.01,2013-04-08 16:37:00,
2013-04-08 12:43:00,45.7,34.2,30.10,NW,305,4.0,11.0,64,0.00,,---,0.00,VWS V14.01,2013-04-08 16:43:00,
2013-04-08 12:50:00,46.0,34.1,30.10,NNW,328,6.0,10.0,63,0.00,,---,0.00,VWS V14.01,2013-04-08 16:50:00,
2013-04-08 12:55:00,46.4,34.1,30.10,WNW,300,5.0,12.0,62,0.00,,---,0.00,VWS V14.01,2013-04-08 16:55:00,
2013-04-08 13:01:00,46.9,34.6,30.09,WNW,284,3.0,10.0,62,0.00,,---,0.00,VWS V14.01,2013-04-08 17:01:00,
2013-04-08 13:06:00,47.5,34.3,30.09,NNE,29,3.0,9.0,60,0.00,,---,0.00,VWS V14.01,2013-04-08 17:06:00,
2013-04-08 13:11:00,48.0,34.8,30.10,North,354,5.0,9.0,60,0.00,,---,0.00,VWS V14.01,2013-04-08 17:11:00,
2013-04-08 13:17:00,48.4,34.8,30.09,WNW,287,4.0,8.0,59,0.00,,---,0.00,VWS V14.01,2013-04-08 17:17:00,
2013-04-08 13:22:00,48.9,35.2,30.09,WNW,293,1.0,8.0,59,0.00,,---,0.00,VWS V14.01,2013-04-08 17:22:00,
2013-04-08 13:27:00,48.9,35.2,30.09,West,260,3.0,7.0,59,0.00,,---,0.00,VWS V14.01,2013-04-08 17:27:00,
2013-04-08 13:33:00,49.1,35.0,30.09,NNE,18,3.0,7.0,58,0.00,,---,0.00,VWS V14.01,2013-04-08 17:33:00,
2013-04-08 13:38:00,49.5,34.9,30.09,NW,320,4.0,7.0,57,0.00,,---,0.00,VWS V14.01,2013-04-08 17:38:00,
2013-04-08 13:43:00,49.5,35.3,30.09,ENE,75,3.0,5.0,58,0.00,,---,0.00,VWS V14.01,2013-04-08 17:43:00,
2013-04-08 13:48:00,50.0,35.4,30.09,NNW,328,3.0,7.0,57,0.00,,---,0.00,VWS V14.01,2013-04-08 17:48:00,
2013-04-08 13:53:00,50.3,35.2,30.08,NNE,30,5.0,8.0,56,0.00,,---,0.00,VWS V14.01,2013-04-08 17:53:00,
2013-04-08 13:59:00,49.9,35.3,30.08,NW,322,1.0,8.0,57,0.00,,---,0.00,VWS V14.01,2013-04-08 17:59:00,
2013-04-08 14:05:00,50.6,35.0,30.08,WNW,283,3.0,5.0,55,0.00,,---,0.00,VWS V14.01,2013-04-08 18:05:00,
2013-04-08 14:10:00,51.0,35.4,30.08,NNW,342,6.0,10.0,55,0.00,,---,0.00,VWS V14.01,2013-04-08 18:10:00,
2013-04-08 14:16:00,51.1,35.0,30.08,SSE,166,5.0,6.0,54,0.00,,---,0.00,VWS V14.01,2013-04-08 18:16:00,
2013-04-08 14:21:00,51.7,35.1,30.07,WNW,288,4.0,6.0,53,0.00,,---,0.00,VWS V14.01,2013-04-08 18:21:00,
2013-04-08 14:26:00,51.9,34.8,30.08,WNW,288,2.0,6.0,52,0.00,,---,0.00,VWS V14.01,2013-04-08 18:26:00,
2013-04-08 14:31:00,52.5,35.9,30.08,WSW,252,0.0,4.0,53,0.00,,---,0.00,VWS V14.01,2013-04-08 18:31:00,
2013-04-08 14:36:00,53.0,35.4,30.08,WNW,300,4.0,7.0,51,0.00,,---,0.00,VWS V14.01,2013-04-08 18:36:00,
2013-04-08 14:41:00,52.7,35.1,30.08,NW,324,7.0,7.0,51,0.00,,---,0.00,VWS V14.01,2013-04-08 18:41:00,
2013-04-08 14:46:00,52.4,34.8,30.07,NW,314,1.0,6.0,51,0.00,,---,0.00,VWS V14.01,2013-04-08 18:46:00,
2013-04-08 14:51:00,52.7,36.1,30.07,NW,315,3.0,6.0,53,0.00,,---,0.00,VWS V14.01,2013-04-08 18:51:00,
2013-04-08 14:56:00,53.1,35.0,30.07,WNW,283,2.0,6.0,50,0.00,,---,0.00,VWS V14.01,2013-04-08 18:56:00,
2013-04-08 15:01:00,53.3,35.7,30.06,WNW,294,2.0,6.0,51,0.00,,---,0.00,VWS V14.01,2013-04-08 19:01:00,
2013-04-08 15:08:00,53.9,35.2,30.06,WNW,291,4.0,9.0,49,0.00,,---,0.00,VWS V14.01,2013-04-08 19:08:00,
2013-04-08 15:13:00,54.2,36.0,30.06,ENE,65,3.0,7.0,50,0.00,,---,0.00,VWS V14.01,2013-04-08 19:13:00,
2013-04-08 15:18:00,54.3,37.1,30.05,NE,44,5.0,8.0,52,0.00,,---,0.00,VWS V14.01,2013-04-08 19:18:00,
2013-04-08 15:23:00,54.7,36.9,30.05,East,83,2.0,7.0,51,0.00,,---,0.00,VWS V14.01,2013-04-08 19:23:00,
2013-04-08 15:28:00,55.1,36.8,30.05,NNE,16,5.0,5.0,50,0.00,,---,0.00,VWS V14.01,2013-04-08 19:28:00,
2013-04-08 15:33:00,55.1,36.3,30.05,NE,56,0.0,8.0,49,0.00,,---,0.00,VWS V14.01,2013-04-08 19:33:00,
2013-04-08 15:38:00,55.1,36.3,30.05,ENE,70,5.0,9.0,49,0.00,,---,0.00,VWS V14.01,2013-04-08 19:38:00,
2013-04-08 15:43:00,54.7,35.9,30.04,NNW,343,4.0,7.0,49,0.00,,---,0.00,VWS V14.01,2013-04-08 19:43:00,
2013-04-08 15:48:00,55.0,36.2,30.04,ENE,71,1.0,3.0,49,0.00,,---,0.00,VWS V14.01,2013-04-08 19:48:00,
2013-04-08 15:53:00,55.6,36.8,30.04,ENE,77,4.0,5.0,49,0.00,,---,0.00,VWS V14.01,2013-04-08 19:53:00,
2013-04-08 15:58:00,55.6,36.8,30.04,East,96,2.0,4.0,49,0.00,,---,0.00,VWS V14.01,2013-04-08 19:58:00,
2013-04-08 16:06:00,56.8,37.3,30.04,ESE,113,1.0,4.0,48,0.00,,---,0.00,VWS V14.01,2013-04-08 20:06:00,
2013-04-08 16:11:00,57.0,36.4,30.04,ENE,77,2.0,4.0,46,0.00,,---,0.00,VWS V14.01,2013-04-08 20:11:00,
2013-04-08 16:16:00,56.7,36.7,30.03,East,81,3.0,4.0,47,0.00,,---,0.00,VWS V14.01,2013-04-08 20:16:00,
2013-04-08 16:21:00,56.5,36.0,30.03,NE,34,2.0,6.0,46,0.00,,---,0.00,VWS V14.01,2013-04-08 20:21:00,
2013-04-08 16:26:00,56.2,36.3,30.03,East,98,8.0,8.0,47,0.00,,---,0.00,VWS V14.01,2013-04-08 20:26:00,
2013-04-08 16:31:00,55.3,36.0,30.03,East,99,6.0,9.0,48,0.00,,---,0.00,VWS V14.01,2013-04-08 20:31:00,
2013-04-08 16:36:00,54.8,36.0,30.04,ENE,69,1.0,7.0,49,0.00,,---,0.00,VWS V14.01,2013-04-08 20:36:00,
2013-04-08 16:43:00,54.9,35.6,30.03,ESE,105,8.0,9.0,48,0.00,,---,0.00,VWS V14.01,2013-04-08 20:43:00,
2013-04-08 16:48:00,54.4,35.7,30.04,ENE,61,6.0,10.0,49,0.00,,---,0.00,VWS V14.01,2013-04-08 20:48:00,
2013-04-08 16:53:00,54.1,35.4,30.04,ENE,75,2.0,7.0,49,0.00,,---,0.00,VWS V14.01,2013-04-08 20:53:00,
2013-04-08 16:58:00,53.9,35.7,30.03,East,91,4.0,5.0,50,0.00,,---,0.00,VWS V14.01,2013-04-08 20:58:00,
2013-04-08 17:03:00,53.7,36.0,30.03,ENE,72,3.0,6.0,51,0.00,,---,0.00,VWS V14.01,2013-04-08 21:03:00,
2013-04-08 17:08:00,53.9,36.2,30.03,ESE,110,3.0,6.0,51,0.00,,---,0.00,VWS V14.01,2013-04-08 21:08:00,
2013-04-08 17:13:00,53.9,35.7,30.03,SE,128,3.0,8.0,50,0.00,,---,0.00,VWS V14.01,2013-04-08 21:13:00,
2013-04-08 17:18:00,53.8,35.6,30.03,East,86,5.0,8.0,50,0.00,,---,0.00,VWS V14.01,2013-04-08 21:18:00,
2013-04-08 17:23:00,53.8,36.1,30.03,ESE,110,4.0,8.0,51,0.00,,---,0.00,VWS V14.01,2013-04-08 21:23:00,
2013-04-08 17:28:00,53.7,35.5,30.03,East,84,5.0,8.0,50,0.00,,---,0.00,VWS V14.01,2013-04-08 21:28:00,
2013-04-08 17:33:00,53.6,35.9,30.04,ESE,103,5.0,8.0,51,0.00,,---,0.00,VWS V14.01,2013-04-08 21:33:00,
2013-04-08 17:38:00,53.8,35.6,30.04,ESE,102,6.0,7.0,50,0.00,,---,0.00,VWS V14.01,2013-04-08 21:38:00,
2013-04-08 17:44:00,53.8,35.6,30.03,SE,132,3.0,8.0,50,0.00,,---,0.00,VWS V14.01,2013-04-08 21:44:00,
2013-04-08 17:50:00,53.6,35.4,30.03,East,96,2.0,7.0,50,0.00,,---,0.00,VWS V14.01,2013-04-08 21:50:00,
2013-04-08 17:55:00,53.3,35.2,30.03,SE,126,4.0,5.0,50,0.00,,---,0.00,VWS V14.01,2013-04-08 21:55:00,
2013-04-08 18:00:00,52.9,35.3,30.03,ESE,116,5.0,7.0,51,0.00,,---,0.00,VWS V14.01,2013-04-08 22:00:00,
2013-04-08 18:05:00,52.6,35.0,30.03,East,98,4.0,8.0,51,0.00,,---,0.00,VWS V14.01,2013-04-08 22:05:00,
2013-04-08 18:10:00,52.7,35.1,30.03,East,96,6.0,7.0,51,0.00,,---,0.00,VWS V14.01,2013-04-08 22:10:00,
2013-04-08 18:15:00,52.5,34.9,30.03,ESE,108,4.0,8.0,51,0.00,,---,0.00,VWS V14.01,2013-04-08 22:15:00,
2013-04-08 18:20:00,52.2,35.1,30.02,ESE,107,4.0,6.0,52,0.00,,---,0.00,VWS V14.01,2013-04-08 22:20:00,
2013-04-08 18:25:00,52.1,35.0,30.02,ESE,106,7.0,9.0,52,0.00,,---,0.00,VWS V14.01,2013-04-08 22:25:00,
2013-04-08 18:30:00,51.8,34.8,30.03,SE,126,3.0,9.0,52,0.00,,---,0.00,VWS V14.01,2013-04-08 22:30:00,
2013-04-08 18:35:00,51.6,34.6,30.03,ESE,116,3.0,4.0,52,0.00,,---,0.00,VWS V14.01,2013-04-08 22:35:00,
2013-04-08 18:41:00,51.3,34.8,30.03,ESE,119,4.0,5.0,53,0.00,,---,0.00,VWS V14.01,2013-04-08 22:41:00,
2013-04-08 18:46:00,51.2,34.7,30.03,ESE,105,3.0,6.0,53,0.00,,---,0.00,VWS V14.01,2013-04-08 22:46:00,
2013-04-08 18:51:00,50.9,34.4,30.03,ESE,106,3.0,6.0,53,0.00,,---,0.00,VWS V14.01,2013-04-08 22:51:00,
2013-04-08 18:56:00,50.7,34.7,30.03,ESE,111,4.0,8.0,54,0.00,,---,0.00,VWS V14.01,2013-04-08 22:56:00,
2013-04-08 19:01:00,50.6,34.6,30.03,ESE,104,3.0,6.0,54,0.00,,---,0.00,VWS V14.01,2013-04-08 23:01:00,
2013-04-08 19:06:00,50.3,34.3,30.03,SE,133,1.0,5.0,54,0.00,,---,0.00,VWS V14.01,2013-04-08 23:06:00,
2013-04-08 19:11:00,50.2,34.7,30.03,ESE,118,3.0,5.0,55,0.00,,---,0.00,VWS V14.01,2013-04-08 23:11:00,
2013-04-08 19:16:00,49.9,34.4,30.03,ESE,116,2.0,5.0,55,0.00,,---,0.00,VWS V14.01,2013-04-08 23:16:00,
2013-04-08 19:21:00,49.8,34.8,30.03,ESE,111,3.0,4.0,56,0.00,,---,0.00,VWS V14.01,2013-04-08 23:21:00,
2013-04-08 19:26:00,49.6,34.6,30.03,ESE,107,2.0,4.0,56,0.00,,---,0.00,VWS V14.01,2013-04-08 23:26:00,
2013-04-08 19:31:00,49.4,34.4,30.03,ESE,104,4.0,5.0,56,0.00,,---,0.00,VWS V14.01,2013-04-08 23:31:00,
2013-04-08 19:36:00,49.1,34.5,30.03,East,89,2.0,4.0,57,0.00,,---,0.00,VWS V14.01,2013-04-08 23:36:00,
2013-04-08 19:41:00,49.0,34.5,30.03,ESE,114,2.0,5.0,57,0.00,,---,0.00,VWS V14.01,2013-04-08 23:41:00,
2013-04-08 19:46:00,49.0,34.5,30.03,ESE,122,3.0,5.0,57,0.00,,---,0.00,VWS V14.01,2013-04-08 23:46:00,
2013-04-08 19:51:00,48.9,34.3,30.03,ESE,112,3.0,5.0,57,0.00,,---,0.00,VWS V14.01,2013-04-08 23:51:00,
2013-04-08 19:56:00,48.7,34.6,30.03,SE,134,5.0,5.0,58,0.00,,---,0.00,VWS V14.01,2013-04-08 23:56:00,
2013-04-08 20:01:00,48.7,34.2,30.04,SSE,156,4.0,7.0,57,0.00,,---,0.00,VWS V14.01,2013-04-09 00:01:00,
2013-04-08 20:06:00,48.8,34.7,30.04,ESE,108,5.0,7.0,58,0.00,,---,0.00,VWS V14.01,2013-04-09 00:06:00,
2013-04-08 20:11:00,48.9,34.8,30.03,SE,145,5.0,6.0,58,0.00,,---,0.00,VWS V14.01,2013-04-09 00:11:00,
2013-04-08 20:16:00,49.1,35.0,30.03,ESE,113,2.0,6.0,58,0.00,,---,0.00,VWS V14.01,2013-04-09 00:16:00,